METAR Data
IDs: Format: Raw Decoded Include TAF

Data at: 1206 UTC 24 May 2022

EGQL 241150Z 26006KT 9999 VCSH FEW020CB SCT050 13/09 Q1000 RMK BLU